• Join FlightAware (Why Join?)
  • Login
  • US Flag 
06:56AM EDT


 

Airport Tracker/Info


-or-


 

Live Flight TrackerFlight Track Log ✈ GJS3707 ✈ 15-May-2013 ✈ KORD - KBOI

Flight Track Log - Related Links

Times and Time Zones

All times are in EDT time to prevent confusion due to time zone crossing. See the GJS3707 flight status page for this flight to view local times or setup timezone preferences in your user account.

Time Position Orientation Groundspeed Altitude Reporting Facility
EDT Latitude Longitude Course Direction KTS MPH feet Rate Location/Type
11:10AM 42.0167 -87.9667 261° West 164 189 2,700  Level Chicago TRACON
11:11AM 42.0333 -88.0500 285° West 224 258 4,600 2,280 Climbing Chicago TRACON
11:12AM 41.9271 -88.3643 255° West  Level FlightAware Approximate
11:13AM 41.9104 -88.5200 261° West  Level FlightAware Approximate
11:13AM 42.0711 -88.1919 290° West 254 292 9,400  Level Chicago Center
11:14AM 41.8921 -88.6762 261° West  Level FlightAware Approximate
11:14AM 42.0581 -88.2869 260° West 256 295 10,800  Level Chicago Center
11:15AM 41.8740 -88.8324 261° West  Level FlightAware Approximate
11:15AM 42.0417 -88.4014 259° West 304 350 12,200  Level Chicago Center
11:16AM 42.0225 -88.5517 260° West 338 389 14,100 1,800 Climbing Chicago Center
11:17AM 42.0078 -88.6814 261° West 352 405 15,900 1,800 Climbing Chicago Center
11:18AM 41.9825 -88.8114 255° West 362 417 17,900 1,980 Climbing Chicago Center
11:19AM 41.9569 -88.9403 255° West 360 414 20,000 1,740 Climbing Chicago Center
11:20AM 41.9306 -89.0697 255° West 363 418 21,600 1,680 Climbing Chicago Center
11:21AM 41.9006 -89.2275 256° West 368 423 23,500 1,620 Climbing Chicago Center
11:22AM 41.8939 -89.3625 266° West 364 419 25,000 1,200 Climbing Chicago Center
11:23AM 41.8894 -89.5003 268° West 370 426 26,100 960 Climbing Chicago Center
11:24AM 41.8856 -89.6428 268° West 382 440 27,100 900 Climbing Chicago Center
11:25AM 41.8825 -89.7892 268° West 393 452 28,000 900 Climbing Chicago Center
11:26AM 41.8794 -89.9444 269° West 405 466 29,000 960 Climbing Chicago Center
11:27AM 41.8742 -90.0953 267° West 408 470 30,000 1,080 Climbing Chicago Center
11:28AM 41.8692 -90.2764 268° West 409 471 31,300 1,200 Climbing Chicago Center
11:29AM 41.8647 -90.4256 268° West 405 466 32,500 1,020 Climbing Chicago Center
11:30AM 41.8597 -90.5739 267° West 402 463 33,500 720 Climbing Chicago Center
11:31AM 41.8517 -90.7269 266° West 410 472 34,000 240 Climbing Chicago Center
11:32AM 41.8469 -90.8800 268° West 414 476 34,000  Level Chicago Center
11:33AM 41.8397 -91.0725 267° West 431 496 34,000  Level Chicago Center
11:34AM 41.8339 -91.2322 267° West 432 497 34,000  Level Chicago Center
11:35AM 41.8267 -91.3903 267° West 429 494 34,000  Level Chicago Center
11:36AM 41.8203 -91.5478 267° West 427 491 34,000  Level Chicago Center
11:37AM 41.8133 -91.7022 267° West 420 483 34,000  Level Chicago Center
11:38AM 41.8061 -91.8592 267° West 422 486 34,000  Level Chicago Center
11:40AM 41.7969 -92.0456 266° West 422 486 34,000  Level Chicago Center
11:41AM 41.7872 -92.2639 267° West 422 486 34,000  Level Minneapolis Center
11:42AM 41.7811 -92.3542 265° West 419 482 34,000  Level Chicago Center
11:43AM 41.7725 -92.5072 266° West 416 479 34,000  Level Chicago Center
11:44AM 41.7650 -92.6628 266° West 419 482 34,000  Level Chicago Center
11:44AM 41.7617 -92.7600 267° West 421 484 34,000  Level Minneapolis Center
11:45AM 41.7525 -92.9256 266° West 423 487 34,000  Level Minneapolis Center
11:46AM 41.7433 -93.0797 265° West 421 484 34,000  Level Minneapolis Center
11:47AM 41.7336 -93.2369 265° West 426 490 34,000  Level Minneapolis Center
11:48AM 41.7228 -93.4233 266° West 425 489 34,000  Level Minneapolis Center
11:49AM 41.7147 -93.5778 266° West 421 484 34,000  Level Minneapolis Center
11:50AM 41.7039 -93.7356 265° West 429 494 34,000  Level Minneapolis Center
11:51AM 41.6942 -93.9042 266° West 427 491 34,000  Level Minneapolis Center
11:52AM 41.6839 -94.0636 265° West 430 495 34,000  Level Minneapolis Center
11:53AM 41.6719 -94.2389 265° West 429 494 34,000  Level Minneapolis Center
11:55AM 41.6628 -94.3828 265° West 432 497 34,000  Level Minneapolis Center
11:56AM 41.6494 -94.5744 265° West 431 496 34,000  Level Minneapolis Center
11:57AM 41.6381 -94.7350 265° West 432 497 34,000  Level Minneapolis Center
11:58AM 41.6264 -94.8956 265° West 433 498 34,000  Level Minneapolis Center
11:59AM 41.6153 -95.0547 265° West 430 495 34,000  Level Minneapolis Center
12:00PM 41.6028 -95.2156 264° West 436 502 34,000  Level Minneapolis Center
12:01PM 41.5908 -95.3767 264° West 437 503 34,000  Level Minneapolis Center
12:02PM 41.5758 -95.5689 264° West 436 502 34,000  Level Minneapolis Center
12:03PM 41.5644 -95.7031 264° West 436 502 34,000  Level Minneapolis Center
12:04PM 41.5500 -95.8944 264° West 436 502 34,000  Level Minneapolis Center
12:05PM 41.5350 -96.0881 264° West 441 507 34,000  Level Minneapolis Center
12:06PM 41.5211 -96.2497 264° West 441 507 34,000  Level Minneapolis Center
12:07PM 41.5053 -96.4336 264° West 441 507 34,000  Level Minneapolis Center
12:09PM 41.4747 -96.7553 263° West 440 506 34,000  Level Minneapolis Center
12:10PM 41.4608 -96.9178 264° West 441 507 34,000  Level Minneapolis Center
12:11PM 41.4458 -97.0803 263° West 442 509 34,000  Level Minneapolis Center
12:12PM 41.4314 -97.2431 263° West 443 510 34,000  Level Minneapolis Center
12:14PM 41.4133 -97.4364 263° West 440 506 34,000  Level Minneapolis Center
12:15PM 41.3942 -97.6300 263° West 441 507 34,000  Level Minneapolis Center
12:16PM 41.3789 -97.7925 263° West 441 507 34,000  Level Minneapolis Center
12:17PM 41.3622 -97.9536 262° West 441 507 34,000  Level Minneapolis Center
12:18PM 41.3464 -98.1142 263° West 439 505 34,000  Level Minneapolis Center
12:19PM 41.3297 -98.2750 262° West 440 506 34,000  Level Minneapolis Center
12:20PM 41.3092 -98.4689 262° West 441 507 34,000  Level Minneapolis Center
12:21PM 41.2922 -98.6303 262° West 441 507 34,000  Level Minneapolis Center
12:22PM 41.2753 -98.7906 262° West 441 507 34,000  Level Minneapolis Center
12:22PM 41.2647 -98.9047 263° West 443 510 34,000  Level Denver Center
12:24PM 41.2472 -99.0594 261° West 443 510 34,000  Level Denver Center
12:25PM 41.2283 -99.2347 262° West 441 507 34,000  Level Denver Center
12:26PM 41.2100 -99.3956 261° West 442 509 34,000  Level Denver Center
12:27PM 41.1892 -99.5744 261° West 444 511 34,000  Level Denver Center
12:28PM 41.1928 -99.7292 272° West 438 504 34,000  Level Denver Center
12:29PM 41.2083 -99.9106 277° West 442 509 34,000  Level Denver Center
12:30PM 41.2200 -100.0650 276° West 441 507 34,000  Level Denver Center
12:31PM 41.2347 -100.2447 276° West 441 507 34,000  Level Denver Center
12:32PM 41.2472 -100.3983 276° West 441 507 34,000  Level Denver Center
12:33PM 41.2600 -100.5786 275° West 441 507 34,000  Level Denver Center
12:34PM 41.2725 -100.7325 276° West 441 507 34,000  Level Denver Center
12:35PM 41.2872 -100.9397 275° West 443 510 34,000  Level Denver Center
12:36PM 41.2997 -101.1203 275° West 442 509 34,000  Level Denver Center
12:37PM 41.3108 -101.2761 275° West 445 512 34,000  Level Denver Center
12:38PM 41.3233 -101.4578 275° West 444 511 34,000  Level Denver Center
12:39PM 41.3344 -101.6133 275° West 444 511 34,000  Level Denver Center
12:40PM 41.3456 -101.7953 275° West 443 510 34,000  Level Denver Center
12:41PM 41.3558 -101.9508 275° West 442 509 34,000  Level Denver Center
12:42PM 41.3675 -102.1317 275° West 441 507 34,000  Level Denver Center
12:43PM 41.3756 -102.2881 274° West 442 509 34,000  Level Denver Center
12:44PM 41.3878 -102.4692 275° West 442 509 34,000  Level Denver Center
12:45PM 41.3958 -102.6239 274° West 440 506 34,000  Level Denver Center
12:47PM 41.4064 -102.7925 275° West 438 504 34,000  Level Denver Center
12:48PM 41.4175 -103.0003 274° West 440 506 34,000  Level Denver Center
12:49PM 41.4256 -103.1558 274° West 441 507 34,000  Level Denver Center
12:50PM 41.4350 -103.3367 274° West 439 505 34,000  Level Denver Center
12:51PM 41.4428 -103.4914 274° West 438 504 34,000  Level Denver Center
12:52PM 41.4514 -103.6719 274° West 437 503 34,000  Level Denver Center
12:53PM 41.4594 -103.8269 274° West 438 504 34,000  Level Denver Center
12:54PM 41.4669 -103.9814 274° West 437 503 34,000  Level Denver Center
12:55PM 41.4753 -104.1619 274° West 437 503 34,000  Level Denver Center
12:56PM 41.4819 -104.3169 273° West 437 503 34,000  Level Denver Center
12:57PM 41.4897 -104.4983 273° West 438 504 34,000  Level Denver Center
12:58PM 41.4961 -104.6528 273° West 436 502 34,000  Level Denver Center
12:59PM 41.5028 -104.8303 273° West 431 496 34,000  Level Denver Center
01:00PM 41.5086 -104.9833 273° West 431 496 34,000  Level Denver Center
01:01PM 41.5150 -105.1614 273° West 430 495 34,000  Level Denver Center
01:02PM 41.5208 -105.3147 273° West 431 496 34,000  Level Denver Center
01:03PM 41.5275 -105.4919 273° West 429 494 34,000  Level Denver Center
01:04PM 41.5319 -105.6428 272° West 426 490 34,000  Level Denver Center
01:05PM 41.5367 -105.7958 272° West 431 496 34,000  Level Denver Center
01:06PM 41.5419 -105.9731 272° West 429 494 34,000  Level Denver Center
01:07PM 41.5464 -106.1247 272° West 428 493 34,000  Level Denver Center
01:08PM 41.5514 -106.3025 272° West 427 491 34,000  Level Denver Center
01:09PM 41.5547 -106.4544 272° West 427 491 34,000  Level Denver Center
01:10PM 41.5597 -106.6217 272° West 428 493 34,000  Level Denver Center
01:12PM 41.5633 -106.7992 272° West 430 495 34,000  Level Denver Center
01:13PM 41.5672 -106.9497 272° West 426 490 34,000  Level Denver Center
01:14PM 41.5703 -107.1283 271° West 432 497 34,000  Level Denver Center
01:15PM 41.5728 -107.2789 271° West 426 490 34,000  Level Denver Center
01:16PM 41.5761 -107.4578 271° West 431 496 34,000  Level Denver Center
01:17PM 41.5781 -107.5836 271° West 427 491 34,000  Level Denver Center
01:18PM 41.5803 -107.7578 271° West 422 486 34,000  Level Denver Center
01:19PM 41.5831 -107.9353 271° West 427 491 34,000  Level Denver Center
01:20PM 41.5844 -108.0878 271° West 430 495 34,000  Level Denver Center
01:20PM 41.5853 -108.1886 271° West 425 489 34,000  Level Salt Lake Center
01:21PM 41.5878 -108.3661 271° West 428 493 34,000  Level Salt Lake Center
01:22PM 41.5886 -108.5167 270° West 427 491 34,000  Level Salt Lake Center
01:23PM 41.5903 -108.6694 271° West 429 494 34,000  Level Salt Lake Center
01:24PM 41.5903 -108.8467 270° West 431 496 34,000  Level Salt Lake Center
01:25PM 41.5964 -108.9961 273° West 428 493 34,000  Level Salt Lake Center
01:27PM 41.6450 -109.1619 291° West 438 504 34,000  Level Salt Lake Center
01:28PM 41.6969 -109.3014 297° West 441 507 34,000  Level Salt Lake Center
01:29PM 41.7572 -109.4653 296° West 441 507 34,000  Level Salt Lake Center
01:30PM 41.8092 -109.6058 296° West 442 509 34,000  Level Salt Lake Center
01:31PM 41.8694 -109.7694 296° West 441 507 34,000  Level Salt Lake Center
01:32PM 41.9206 -109.9122 296° West 443 510 34,000  Level Salt Lake Center
01:33PM 41.9803 -110.0778 296° West 442 509 34,000  Level Salt Lake Center
01:34PM 42.0317 -110.2197 296° West 443 510 34,000  Level Salt Lake Center
01:35PM 42.0833 -110.3628 296° West 444 511 34,000  Level Salt Lake Center
01:36PM 42.1431 -110.5294 296° West 443 510 34,000  Level Salt Lake Center
01:37PM 42.1931 -110.6708 296° West 439 505 34,000  Level Salt Lake Center
01:38PM 42.2519 -110.8383 295° West 441 507 34,000  Level Salt Lake Center
01:39PM 42.3031 -110.9828 296° West 438 504 34,000  Level Salt Lake Center
01:40PM 42.3542 -111.1314 295° West 438 504 34,000  Level Salt Lake Center
01:41PM 42.4064 -111.2803 295° West 440 506 34,000  Level Salt Lake Center
01:42PM 42.4572 -111.4286 295° West 437 503 34,000  Level Salt Lake Center
01:43PM 42.5186 -111.6072 295° West 438 504 34,000  Level Salt Lake Center
01:44PM 42.5697 -111.7564 295° West 439 505 34,000  Level Salt Lake Center
01:45PM 42.6208 -111.9058 295° West 438 504 34,000  Level Salt Lake Center
01:46PM 42.6717 -112.0575 295° West 441 507 34,000  Level Salt Lake Center
01:47PM 42.7236 -112.2106 295° West 441 507 34,000  Level Salt Lake Center
01:48PM 42.7808 -112.3806 295° West 441 507 34,000  Level Salt Lake Center
01:49PM 42.8294 -112.5258 295° West 441 507 34,000  Level Salt Lake Center
01:50PM 42.8803 -112.6992 292° West 441 507 34,000  Level Salt Lake Center
01:51PM 42.9119 -112.8539 286° West 441 507 34,000  Level Salt Lake Center
01:52PM 42.9503 -113.0331 286° West 441 507 34,000  Level Salt Lake Center
01:53PM 42.9811 -113.1856 285° West 437 503 34,000  Level Salt Lake Center
01:54PM 43.0178 -113.3653 286° West 438 504 34,000  Level Salt Lake Center
01:55PM 43.0500 -113.5172 286° West 436 502 34,000  Level Salt Lake Center
01:56PM 43.0797 -113.6692 285° West 435 501 34,000 -300 Level Salt Lake Center
01:57PM 43.1144 -113.8464 285° West 432 497 33,400 -1,200 Descending Salt Lake Center
01:58PM 43.1444 -114.0019 285° West 434 499 31,600 -1,860 Descending Salt Lake Center
02:00PM 43.1736 -114.1533 285° West 413 475 29,600 -1,920 Descending Salt Lake Center
02:01PM 43.2083 -114.3222 286° West 412 474 27,600 -2,040 Descending Salt Lake Center
02:02PM 43.2419 -114.4928 285° West 414 476 25,500 -1,920 Descending Salt Lake Center
02:03PM 43.2692 -114.6364 285° West 407 468 23,700 -1,740 Descending Salt Lake Center
02:04PM 43.2950 -114.7731 285° West 388 447 22,000 -1,860 Descending Salt Lake Center
02:05PM 43.3244 -114.9292 285° West 380 437 19,900 -1,980 Descending Salt Lake Center
02:06PM 43.3517 -115.0750 284° West 377 434 18,000 -1,860 Descending Salt Lake Center
02:07PM 43.3775 -115.2142 284° West 366 421 16,100 -1,800 Descending Salt Lake Center
02:08PM 43.4022 -115.3508 284° West 357 411 14,300 -1,740 Descending Salt Lake Center
02:09PM 43.4244 -115.4769 284° West 330 380 12,600 -1,560 Descending Salt Lake Center
02:10PM 43.4433 -115.5808 284° West 296 341 11,100 -1,620 Descending Salt Lake Center
02:11PM 43.4622 -115.6878 284° West 278 320 9,300 -1,560 Descending Salt Lake Center
02:12PM 43.4808 -115.7908 284° West 267 307 8,000 -660 Descending Salt Lake Center
02:13PM 43.4964 -115.8778 284° West 221 254 8,000 -540 Level Salt Lake Center
02:14PM 43.4919 -115.9611 266° West 213 245 7,000 -1,080 Descending Salt Lake Center
02:15PM 43.5039 -116.0422 282° West 206 237 5,800 -1,200 Descending Salt Lake Center